Time;durP1;ratioP1;P1;durP2;ratioP2;P2;SDS_P1;SDS_P2;PMS_P1;PMS_P2;Temp;Humidity;BMP_temperature;BMP_pressure;BME280_temperature;BME280_humidity;BME280_pressure;Samples;Min_cycle;Max_cycle;Signal;HPM_P1;HPM_P2
2021/12/04 00:01:24;;;;;;;9.57;5.10;;;3.30;99.90;;;;;;5071386;28;20201;-61
2021/12/04 00:03:52;;;;;;;12.63;6.90;;;3.30;99.90;;;;;;5069966;28;20980;-61
2021/12/04 00:06:23;;;;;;;12.87;5.80;;;3.30;99.90;;;;;;5070076;28;20279;-61
2021/12/04 00:08:51;;;;;;;10.73;5.00;;;3.20;99.90;;;;;;5070443;28;20294;-61
2021/12/04 00:11:18;;;;;;;8.40;3.90;;;3.20;99.90;;;;;;5071995;28;20197;-60
2021/12/04 00:13:46;;;;;;;7.50;5.03;;;3.20;99.90;;;;;;5070436;28;20530;-60
2021/12/04 00:16:14;;;;;;;9.53;5.07;;;3.10;99.90;;;;;;5069941;28;20742;-61
2021/12/04 00:18:41;;;;;;;7.77;5.00;;;3.10;99.90;;;;;;5069195;28;20547;-62
2021/12/04 00:21:08;;;;;;;8.27;4.83;;;3.10;99.90;;;;;;5072659;28;20197;-62
2021/12/04 00:23:36;;;;;;;10.53;4.70;;;3.10;99.90;;;;;;5069498;28;20258;-60
2021/12/04 00:26:04;;;;;;;9.30;5.27;;;3.10;99.90;;;;;;5070795;28;20201;-61
2021/12/04 00:28:31;;;;;;;9.27;4.70;;;3.10;99.90;;;;;;5067969;28;20216;-61
2021/12/04 00:31:04;;;;;;;8.70;4.73;;;3.10;99.90;;;;;;5067874;28;20197;-61
2021/12/04 00:33:34;;;;;;;8.17;5.00;;;3.10;99.90;;;;;;5070703;28;20712;-62
2021/12/04 00:36:04;;;;;;;8.93;4.83;;;3.20;99.90;;;;;;5069655;28;20207;-61
2021/12/04 00:49:30;;;;;;;11.23;6.00;;;3.20;99.90;;;;;;5063239;28;20203;-60
2021/12/04 00:51:58;;;;;;;13.47;5.80;;;3.20;99.90;;;;;;5075666;28;20196;-60
2021/12/04 00:54:27;;;;;;;14.80;5.80;;;3.10;99.90;;;;;;5071093;28;20204;-61
2021/12/04 00:56:56;;;;;;;11.07;5.47;;;3.10;99.90;;;;;;5073172;28;20640;-61
2021/12/04 00:59:23;;;;;;;11.30;5.60;;;3.10;99.90;;;;;;5077609;28;20200;-61
2021/12/04 01:01:51;;;;;;;10.17;5.67;;;3.10;99.90;;;;;;5070940;28;20205;-61
2021/12/04 01:04:20;;;;;;;10.33;5.47;;;3.10;99.90;;;;;;5069562;28;20211;-62
2021/12/04 01:06:50;;;;;;;11.00;5.80;;;3.10;99.90;;;;;;5065669;28;20221;-61
2021/12/04 01:09:19;;;;;;;13.33;6.30;;;3.10;99.90;;;;;;5068581;28;20185;-61
2021/12/04 01:11:48;;;;;;;14.17;6.63;;;3.10;99.90;;;;;;5061609;28;20259;-61
2021/12/04 01:14:17;;;;;;;9.63;6.23;;;3.10;99.90;;;;;;5069842;28;20652;-61
2021/12/04 01:16:45;;;;;;;7.23;4.80;;;3.00;99.90;;;;;;5061216;28;20762;-61
2021/12/04 01:19:14;;;;;;;11.80;6.00;;;3.00;99.90;;;;;;5072316;28;20223;-61
2021/12/04 01:21:42;;;;;;;14.23;6.07;;;3.00;99.90;;;;;;5070290;28;20655;-61
2021/12/04 01:24:11;;;;;;;13.10;6.30;;;3.00;99.90;;;;;;5071121;28;20265;-62
2021/12/04 01:26:39;;;;;;;7.37;4.77;;;3.00;99.90;;;;;;5071088;28;20196;-61
2021/12/04 01:29:06;;;;;;;11.43;5.13;;;3.00;99.90;;;;;;5075013;28;20200;-62
2021/12/04 01:31:33;;;;;;;14.73;6.00;;;3.00;99.90;;;;;;5073300;28;20205;-61
2021/12/04 01:34:00;;;;;;;8.50;5.07;;;3.10;99.90;;;;;;5080892;28;20196;-62
2021/12/04 01:36:29;;;;;;;9.50;5.20;;;3.10;99.90;;;;;;5079075;28;20201;-61
2021/12/04 01:38:58;;;;;;;11.50;4.47;;;3.10;99.90;;;;;;5079263;28;20198;-62
2021/12/04 01:41:27;;;;;;;9.87;4.97;;;3.20;99.90;;;;;;5081320;28;20225;-62
2021/12/04 01:43:58;;;;;;;12.10;5.70;;;3.20;99.90;;;;;;5080176;28;20208;-62
2021/12/04 01:46:25;;;;;;;10.13;5.73;;;3.20;99.90;;;;;;5080562;28;20589;-62
2021/12/04 01:48:52;;;;;;;12.10;5.97;;;3.20;99.90;;;;;;5077171;28;20219;-61
2021/12/04 01:51:19;;;;;;;9.27;5.43;;;3.20;99.90;;;;;;5076660;28;20222;-61
2021/12/04 01:53:46;;;;;;;11.33;5.47;;;3.10;99.90;;;;;;5084573;28;20265;-62
2021/12/04 01:56:14;;;;;;;8.23;4.50;;;3.10;99.90;;;;;;5072086;28;20209;-60
2021/12/04 01:58:44;;;;;;;7.07;4.40;;;3.10;99.90;;;;;;5079992;28;20192;-61
2021/12/04 02:01:11;;;;;;;5.97;4.37;;;3.10;99.90;;;;;;5071742;28;20193;-61
2021/12/04 02:03:38;;;;;;;8.03;4.67;;;3.10;99.90;;;;;;5071730;28;20207;-61
2021/12/04 02:06:05;;;;;;;7.13;3.87;;;3.20;99.90;;;;;;5074290;28;20233;-61
2021/12/04 02:08:32;;;;;;;9.03;4.77;;;3.10;99.90;;;;;;5074580;28;20223;-60
2021/12/04 02:11:01;;;;;;;8.43;4.97;;;3.20;99.90;;;;;;5074715;28;20224;-60
2021/12/04 02:13:28;;;;;;;7.27;4.53;;;3.10;99.90;;;;;;5075671;28;20589;-60
2021/12/04 02:16:01;;;;;;;5.00;3.70;;;3.20;99.90;;;;;;5070595;28;20693;-61
2021/12/04 02:18:28;;;;;;;10.33;5.93;;;3.20;99.90;;;;;;5071238;28;20221;-60
2021/12/04 02:20:57;;;;;;;8.60;5.00;;;3.20;99.90;;;;;;5069980;28;20219;-61
2021/12/04 02:23:24;;;;;;;10.97;5.70;;;3.20;99.90;;;;;;5071323;28;20572;-62
2021/12/04 02:25:51;;;;;;;8.63;5.00;;;3.20;99.90;;;;;;5073160;28;20197;-62
2021/12/04 02:28:18;;;;;;;8.90;4.40;;;3.20;99.90;;;;;;5072306;28;20579;-60
2021/12/04 02:30:48;;;;;;;7.37;4.70;;;3.10;99.90;;;;;;5073564;28;20280;-61
2021/12/04 02:33:16;;;;;;;9.00;4.20;;;3.10;99.90;;;;;;5072069;28;20660;-61
2021/12/04 02:35:47;;;;;;;12.63;5.10;;;3.10;99.90;;;;;;5072395;28;20660;-62
2021/12/04 02:38:18;;;;;;;12.87;4.87;;;3.10;99.90;;;;;;5070975;28;20196;-61
2021/12/04 02:40:46;;;;;;;7.67;4.20;;;3.20;99.90;;;;;;5073009;28;20195;-60
2021/12/04 02:43:14;;;;;;;8.10;4.90;;;3.20;99.90;;;;;;5071788;28;20205;-61
2021/12/04 02:45:43;;;;;;;8.63;4.73;;;3.20;99.90;;;;;;5071530;28;20204;-62
2021/12/04 02:48:10;;;;;;;7.73;3.80;;;3.20;99.90;;;;;;5071258;28;20201;-61
2021/12/04 02:50:38;;;;;;;7.63;4.43;;;3.20;99.90;;;;;;5076891;28;20213;-61
2021/12/04 02:53:05;;;;;;;8.47;3.93;;;3.20;99.90;;;;;;5064229;28;20202;-61
2021/12/04 02:55:34;;;;;;;7.33;4.10;;;3.20;99.90;;;;;;5074474;28;20470;-62
2021/12/04 02:58:01;;;;;;;4.13;3.37;;;3.10;99.90;;;;;;5105007;27;20217;-61
2021/12/04 03:00:29;;;;;;;8.67;5.17;;;3.10;99.90;;;;;;5071856;28;20254;-62
2021/12/04 03:02:57;;;;;;;8.13;5.10;;;3.10;99.90;;;;;;5070992;28;20208;-61
2021/12/04 03:05:26;;;;;;;10.67;4.93;;;3.10;99.90;;;;;;5075351;28;20236;-62
2021/12/04 03:07:55;;;;;;;6.27;3.80;;;3.20;99.90;;;;;;5070874;28;20245;-61
2021/12/04 03:10:23;;;;;;;5.83;3.97;;;3.10;99.90;;;;;;5071755;28;20193;-61
2021/12/04 03:12:52;;;;;;;11.33;5.53;;;3.20;99.90;;;;;;5074650;28;20323;-61
2021/12/04 03:15:21;;;;;;;8.27;4.90;;;3.20;99.90;;;;;;5078161;28;20189;-61
2021/12/04 03:17:48;;;;;;;9.33;4.67;;;3.20;99.90;;;;;;5079040;28;20189;-61
2021/12/04 03:20:16;;;;;;;8.53;4.77;;;3.20;99.90;;;;;;5079350;28;20201;-61
2021/12/04 03:22:45;;;;;;;7.17;3.80;;;3.10;99.90;;;;;;5079681;28;20204;-60
2021/12/04 03:25:15;;;;;;;9.63;4.43;;;3.10;99.90;;;;;;5082599;28;20241;-60
2021/12/04 03:27:46;;;;;;;7.17;4.10;;;3.20;99.90;;;;;;5083956;28;20565;-60
2021/12/04 03:30:24;;;;;;;8.40;4.13;;;3.20;99.90;;;;;;5082341;28;20708;-61
2021/12/04 03:35:14;;;;;;;12.70;5.77;;;3.20;99.90;;;;;;5070234;28;20269;-61
2021/12/04 03:41:27;;;;;;;10.73;5.23;;;3.20;99.90;;;;;;5009813;28;20225;-61
2021/12/04 03:43:54;;;;;;;12.77;6.40;;;3.20;99.90;;;;;;5051452;28;20220;-61
2021/12/04 03:46:24;;;;;;;7.33;4.60;;;3.20;99.90;;;;;;5115014;27;20679;-60
2021/12/04 03:48:51;;;;;;;12.00;5.90;;;3.20;99.90;;;;;;5077052;28;20215;-62
2021/12/04 03:51:19;;;;;;;12.83;5.87;;;3.20;99.90;;;;;;5074495;28;20755;-62
2021/12/04 03:53:46;;;;;;;16.70;6.63;;;3.20;99.90;;;;;;5073107;28;20211;-61
2021/12/04 03:56:15;;;;;;;12.80;5.77;;;3.10;99.90;;;;;;5076540;28;20270;-61
2021/12/04 03:58:43;;;;;;;7.90;4.70;;;3.10;99.90;;;;;;5078120;28;20192;-60
2021/12/04 04:01:10;;;;;;;10.57;4.50;;;3.10;99.90;;;;;;5076586;28;20287;-61
2021/12/04 04:03:38;;;;;;;7.97;4.37;;;3.10;99.90;;;;;;5077377;28;20326;-61
2021/12/04 04:06:05;;;;;;;12.50;5.97;;;3.10;99.90;;;;;;5075041;28;20286;-61
2021/12/04 04:08:33;;;;;;;11.63;6.67;;;3.10;99.90;;;;;;5078032;28;20212;-61
2021/12/04 04:11:00;;;;;;;12.47;5.93;;;3.10;99.90;;;;;;5069627;28;20195;-61
2021/12/04 04:13:27;;;;;;;10.93;5.60;;;3.10;99.90;;;;;;5081170;28;20230;-61
2021/12/04 04:15:54;;;;;;;10.57;5.77;;;3.10;99.90;;;;;;5079205;28;20680;-60
2021/12/04 04:18:21;;;;;;;8.73;4.90;;;3.10;99.90;;;;;;5070122;28;20197;-61
2021/12/04 04:20:50;;;;;;;7.73;4.13;;;3.10;99.90;;;;;;5071557;28;20196;-61
2021/12/04 04:23:17;;;;;;;7.00;4.00;;;3.10;99.90;;;;;;5081363;28;20199;-61
2021/12/04 04:25:44;;;;;;;4.70;3.20;;;3.20;99.90;;;;;;5078239;28;20200;-62
2021/12/04 04:28:12;;;;;;;6.13;3.77;;;3.20;99.90;;;;;;5078178;28;20785;-62
2021/12/04 04:30:39;;;;;;;8.27;4.93;;;3.20;99.90;;;;;;5078562;28;20717;-61
2021/12/04 04:33:07;;;;;;;15.20;5.57;;;3.20;99.90;;;;;;5079718;28;20283;-61
2021/12/04 04:35:35;;;;;;;9.83;5.43;;;3.20;99.90;;;;;;5076370;28;20200;-61
2021/12/04 04:38:14;;;;;;;7.87;5.40;;;3.20;99.90;;;;;;5073872;28;20200;-60
2021/12/04 05:10:13;;;;;;;5.03;3.10;;;3.40;99.90;;;;;;5064042;28;20217;-61
2021/12/04 05:11:15;;;;;;;6.20;4.30;;;3.40;99.90;;;;;;5071390;28;20276;-61
2021/12/04 05:13:43;;;;;;;4.30;3.40;;;3.40;99.90;;;;;;5076772;28;20211;-61
2021/12/04 05:16:14;;;;;;;8.03;3.50;;;3.40;99.90;;;;;;5073141;28;20212;-61
2021/12/04 05:18:50;;;;;;;6.53;4.10;;;3.40;99.90;;;;;;5069242;28;20199;-62
2021/12/04 05:21:18;;;;;;;6.07;3.83;;;3.40;99.90;;;;;;5072553;28;20651;-61
2021/12/04 05:23:47;;;;;;;10.67;4.80;;;3.30;99.90;;;;;;5070995;28;20196;-61
2021/12/04 05:26:18;;;;;;;11.20;5.90;;;3.30;99.90;;;;;;5078509;28;20192;-61
2021/12/04 05:28:46;;;;;;;9.13;5.17;;;3.30;99.90;;;;;;5073684;28;20247;-62
2021/12/04 05:31:14;;;;;;;5.47;3.73;;;3.20;99.90;;;;;;5082501;28;20197;-60
2021/12/04 05:33:41;;;;;;;6.07;4.03;;;3.20;99.90;;;;;;5074235;28;20197;-60
2021/12/04 05:36:10;;;;;;;7.90;4.60;;;3.30;99.90;;;;;;5082397;28;20606;-61
2021/12/04 05:38:38;;;;;;;8.97;5.30;;;3.30;99.90;;;;;;5068005;28;20197;-61
2021/12/04 05:41:06;;;;;;;15.47;6.50;;;3.30;99.90;;;;;;5078101;28;20276;-60
2021/12/04 05:43:36;;;;;;;7.97;5.63;;;3.30;99.90;;;;;;5074951;28;20283;-60
2021/12/04 05:46:11;;;;;;;6.43;4.40;;;3.30;99.90;;;;;;5075959;28;20275;-61
2021/12/04 05:48:44;;;;;;;15.37;7.87;;;3.30;99.90;;;;;;5072340;28;20468;-60
2021/12/04 05:51:28;;;;;;;14.33;7.10;;;3.20;99.90;;;;;;5075070;28;20291;-60
2021/12/04 05:54:01;;;;;;;14.60;7.97;;;3.20;99.90;;;;;;5079126;28;20203;-61
2021/12/04 05:56:30;;;;;;;10.50;6.47;;;3.20;99.90;;;;;;5087004;28;20192;-61
2021/12/04 05:58:59;;;;;;;10.10;5.87;;;3.20;99.90;;;;;;5075131;28;20197;-62
2021/12/04 06:01:28;;;;;;;13.13;6.83;;;3.10;99.90;;;;;;5086277;28;20189;-61
2021/12/04 06:03:55;;;;;;;13.67;6.83;;;3.10;99.90;;;;;;5083145;28;20354;-62
2021/12/04 06:06:22;;;;;;;9.83;5.97;;;3.10;99.90;;;;;;5083836;28;20568;-61
2021/12/04 06:08:49;;;;;;;9.70;5.70;;;3.10;99.90;;;;;;5084493;28;20728;-61
2021/12/04 06:11:16;;;;;;;5.80;4.73;;;3.00;99.90;;;;;;5086429;28;20678;-61
2021/12/04 06:13:44;;;;;;;11.37;6.47;;;3.00;99.90;;;;;;5088454;28;20203;-61
2021/12/04 06:16:13;;;;;;;9.97;6.40;;;3.10;99.90;;;;;;5085122;28;20203;-61
2021/12/04 06:18:40;;;;;;;11.27;6.70;;;3.10;99.90;;;;;;5071340;28;20193;-62
2021/12/04 06:23:52;;;;;;;10.93;6.20;;;3.10;99.90;;;;;;5071704;28;20502;-61
2021/12/04 06:26:19;;;;;;;9.70;5.53;;;3.10;99.90;;;;;;5074840;28;20243;-61
2021/12/04 06:28:46;;;;;;;15.93;6.90;;;3.10;99.90;;;;;;5075173;28;20221;-61
2021/12/04 06:31:15;;;;;;;7.77;4.97;;;3.10;99.90;;;;;;5078842;28;20193;-62
2021/12/04 06:33:43;;;;;;;9.60;5.60;;;3.10;99.90;;;;;;5073735;28;20209;-61
2021/12/04 06:36:10;;;;;;;12.47;7.17;;;3.10;99.90;;;;;;5077998;28;20785;-61
2021/12/04 06:38:37;;;;;;;14.47;7.87;;;3.20;99.90;;;;;;5074871;28;20193;-61
2021/12/04 06:41:06;;;;;;;12.43;8.03;;;3.10;99.90;;;;;;5077480;28;20264;-61
2021/12/04 06:43:34;;;;;;;12.00;6.70;;;3.10;99.90;;;;;;5076549;28;20189;-61
2021/12/04 06:46:03;;;;;;;12.17;6.60;;;3.10;99.90;;;;;;5078635;28;20189;-61
2021/12/04 06:48:39;;;;;;;14.53;8.20;;;3.10;99.90;;;;;;5080319;28;20197;-60
2021/12/04 06:51:12;;;;;;;15.20;8.20;;;3.10;99.90;;;;;;5084556;28;20220;-62
2021/12/04 06:53:43;;;;;;;10.70;6.30;;;3.10;99.90;;;;;;5074973;28;20285;-61
2021/12/04 06:56:12;;;;;;;10.50;5.90;;;3.00;99.90;;;;;;5084757;28;20675;-60
2021/12/04 06:58:40;;;;;;;13.90;7.23;;;3.00;99.90;;;;;;5076904;28;20250;-60
2021/12/04 07:01:10;;;;;;;9.33;6.40;;;3.10;99.90;;;;;;5081251;28;20266;-60
2021/12/04 07:03:39;;;;;;;9.10;5.70;;;3.10;99.90;;;;;;5075561;28;20497;-61
2021/12/04 07:06:07;;;;;;;11.50;5.87;;;3.10;99.90;;;;;;5079188;28;20705;-62
2021/12/04 07:08:34;;;;;;;8.33;5.33;;;3.20;99.90;;;;;;5072614;28;20208;-61
2021/12/04 07:11:04;;;;;;;10.07;5.30;;;3.20;99.90;;;;;;5075289;28;20204;-61
2021/12/04 07:13:31;;;;;;;9.67;5.67;;;3.20;99.90;;;;;;5071029;28;20637;-60
2021/12/04 07:16:04;;;;;;;12.70;7.30;;;3.20;99.90;;;;;;5073187;28;20199;-61
2021/12/04 07:18:31;;;;;;;8.47;5.43;;;3.20;99.90;;;;;;5070361;28;20193;-60
2021/12/04 07:21:02;;;;;;;9.13;4.93;;;3.20;99.90;;;;;;5072176;28;20247;-61
2021/12/04 07:23:29;;;;;;;10.10;6.07;;;3.20;99.90;;;;;;5072205;28;20560;-62
2021/12/04 07:25:57;;;;;;;14.13;8.20;;;3.20;99.90;;;;;;5073737;28;20208;-61
2021/12/04 07:28:26;;;;;;;17.43;8.47;;;3.20;99.90;;;;;;5071279;28;20201;-62
2021/12/04 07:30:53;;;;;;;16.03;8.77;;;3.20;99.90;;;;;;5073005;28;20300;-60
2021/12/04 07:33:21;;;;;;;13.67;7.17;;;3.20;99.90;;;;;;5074880;28;20201;-61
2021/12/04 07:35:48;;;;;;;15.13;7.27;;;3.20;99.90;;;;;;5071294;28;20197;-61
2021/12/04 07:38:17;;;;;;;9.03;5.60;;;3.20;99.90;;;;;;5073052;28;20219;-62
2021/12/04 07:40:45;;;;;;;15.27;8.07;;;3.20;99.90;;;;;;5070885;28;20193;-61
2021/12/04 07:43:12;;;;;;;13.00;6.90;;;3.20;99.90;;;;;;5082121;28;20362;-62
2021/12/04 07:45:40;;;;;;;18.83;8.80;;;3.30;99.90;;;;;;5079584;28;20591;-61
2021/12/04 07:48:07;;;;;;;14.07;7.73;;;3.30;99.90;;;;;;5071857;28;20225;-61
2021/12/04 07:50:36;;;;;;;16.30;8.00;;;3.30;99.90;;;;;;5075342;28;20213;-61
2021/12/04 07:53:04;;;;;;;13.00;6.80;;;3.40;99.90;;;;;;5076034;28;20599;-61
2021/12/04 07:55:33;;;;;;;14.13;7.23;;;3.40;99.90;;;;;;5071800;28;20211;-62
2021/12/04 07:58:00;;;;;;;18.40;7.90;;;3.40;99.90;;;;;;5075703;28;20213;-62
2021/12/04 08:00:28;;;;;;;16.70;8.33;;;3.40;99.90;;;;;;5072247;28;20243;-61
2021/12/04 08:02:55;;;;;;;20.23;8.93;;;3.40;99.90;;;;;;5072519;28;20208;-61
2021/12/04 08:05:22;;;;;;;13.77;8.00;;;3.40;99.90;;;;;;5068909;28;20283;-61
2021/12/04 08:07:53;;;;;;;9.17;6.10;;;3.40;99.90;;;;;;5074486;28;20212;-61
2021/12/04 08:10:21;;;;;;;13.33;8.40;;;3.40;99.90;;;;;;5070907;28;20201;-61
2021/12/04 08:12:49;;;;;;;15.57;8.50;;;3.50;99.90;;;;;;5071183;28;20208;-61
2021/12/04 08:15:17;;;;;;;11.60;7.40;;;3.50;99.90;;;;;;5069280;28;20588;-61
2021/12/04 08:17:45;;;;;;;15.00;8.67;;;3.50;99.90;;;;;;5070376;28;20202;-62
2021/12/04 08:20:13;;;;;;;11.67;6.70;;;3.50;99.90;;;;;;5072970;28;20208;-62
2021/12/04 08:22:41;;;;;;;10.53;6.30;;;3.40;99.90;;;;;;5075625;28;20455;-62
2021/12/04 08:25:11;;;;;;;12.50;7.77;;;3.50;99.90;;;;;;5073508;28;20552;-61
2021/12/04 08:27:45;;;;;;;14.10;7.10;;;3.60;99.90;;;;;;5072759;28;20212;-62
2021/12/04 08:30:20;;;;;;;9.07;5.53;;;3.60;99.90;;;;;;5074663;28;20296;-61
2021/12/04 08:32:49;;;;;;;12.63;8.03;;;3.60;99.90;;;;;;5077146;28;20231;-61
2021/12/04 08:35:18;;;;;;;12.33;7.37;;;3.60;99.90;;;;;;5074630;28;20238;-60
2021/12/04 08:37:46;;;;;;;13.00;7.73;;;3.60;99.90;;;;;;5073354;28;20288;-61
2021/12/04 08:40:15;;;;;;;12.70;7.63;;;3.60;99.90;;;;;;5072042;28;20200;-61
2021/12/04 08:42:42;;;;;;;14.20;7.90;;;3.60;99.90;;;;;;5087171;28;20205;-61
2021/12/04 08:45:10;;;;;;;13.00;7.53;;;3.60;99.90;;;;;;5074064;28;20605;-62
2021/12/04 08:47:39;;;;;;;12.60;7.47;;;3.50;99.90;;;;;;5074269;28;20204;-61
2021/12/04 08:50:07;;;;;;;14.53;8.37;;;3.50;99.90;;;;;;5073944;28;20204;-62
2021/12/04 08:52:35;;;;;;;12.33;7.63;;;3.50;99.90;;;;;;5073875;28;20207;-60
2021/12/04 08:55:02;;;;;;;14.40;7.97;;;3.60;99.90;;;;;;5076883;28;20193;-61
2021/12/04 08:57:29;;;;;;;15.60;8.63;;;3.60;99.90;;;;;;5072085;28;20228;-61
2021/12/04 08:59:56;;;;;;;16.13;7.93;;;3.70;99.90;;;;;;5071857;28;20200;-60
2021/12/04 09:02:23;;;;;;;13.73;7.80;;;3.60;99.90;;;;;;5078871;28;20580;-61
2021/12/04 09:04:54;;;;;;;15.40;9.27;;;3.60;99.90;;;;;;5075177;28;20561;-62
2021/12/04 09:07:21;;;;;;;13.03;7.80;;;3.60;99.90;;;;;;5082126;28;20188;-61
2021/12/04 09:09:54;;;;;;;15.63;8.30;;;3.60;99.90;;;;;;5076061;28;20213;-62
2021/12/04 09:12:22;;;;;;;19.13;9.30;;;3.60;99.90;;;;;;5077449;28;20250;-62
2021/12/04 09:14:50;;;;;;;16.03;9.20;;;3.60;99.90;;;;;;5080182;28;20253;-61
2021/12/04 09:17:18;;;;;;;14.80;8.93;;;3.60;99.90;;;;;;5074553;28;20676;-61
2021/12/04 09:19:47;;;;;;;12.77;7.83;;;3.70;99.90;;;;;;5070711;28;20205;-61
2021/12/04 09:22:23;;;;;;;18.80;9.37;;;3.70;99.90;;;;;;5071635;28;20193;-61
2021/12/04 09:24:54;;;;;;;15.83;8.40;;;3.70;99.90;;;;;;5069214;28;20189;-61
2021/12/04 09:27:34;;;;;;;21.43;10.43;;;3.70;99.90;;;;;;5067781;28;20212;-61
2021/12/04 09:30:10;;;;;;;15.23;8.60;;;3.70;99.90;;;;;;5069546;28;20212;-61
2021/12/04 10:00:21;;;;;;;10.90;6.93;;;4.20;99.90;;;;;;5062390;28;20186;-61
2021/12/04 10:06:03;;;;;;;9.97;6.03;;;4.20;99.90;;;;;;5069934;28;20237;-61
2021/12/04 10:20:17;;;;;;;16.60;8.70;;;4.40;99.90;;;;;;5072862;28;20233;-61
2021/12/04 10:23:05;;;;;;;16.97;9.03;;;4.40;99.90;;;;;;5077161;28;20224;-61
2021/12/04 10:33:50;;;;;;;9.13;6.00;;;4.50;99.90;;;;;;5073868;28;20246;-61
2021/12/04 10:36:28;;;;;;;12.80;7.23;;;4.50;99.90;;;;;;5079622;28;20197;-60
2021/12/04 10:38:56;;;;;;;11.87;6.50;;;4.50;99.90;;;;;;5078659;28;20203;-61
2021/12/04 10:41:30;;;;;;;13.03;7.80;;;4.60;99.90;;;;;;5083808;28;20192;-61
2021/12/04 10:44:13;;;;;;;19.50;9.63;;;4.60;99.90;;;;;;5075590;28;20291;-60
2021/12/04 10:46:41;;;;;;;18.27;9.07;;;4.60;99.90;;;;;;5079148;28;20189;-62
2021/12/04 10:49:14;;;;;;;16.60;9.53;;;4.60;99.90;;;;;;5074067;28;20279;-61
2021/12/04 10:51:48;;;;;;;15.83;9.00;;;4.50;99.90;;;;;;5067084;28;20204;-61
2021/12/04 10:54:23;;;;;;;11.30;7.47;;;4.50;99.90;;;;;;5067528;28;20220;-63
2021/12/04 10:57:06;;;;;;;11.77;7.37;;;4.50;99.90;;;;;;5064332;28;20712;-60
2021/12/04 10:59:47;;;;;;;13.87;7.27;;;4.50;99.90;;;;;;5073859;28;20611;-61
2021/12/04 11:02:21;;;;;;;14.10;8.63;;;4.60;99.90;;;;;;5075202;28;20263;-61
2021/12/04 11:04:51;;;;;;;14.10;8.77;;;4.50;99.90;;;;;;5073785;28;20193;-61
2021/12/04 11:19:05;;;;;;;10.07;6.30;;;4.60;99.90;;;;;;5041616;28;20743;-60
2021/12/04 11:27:23;;;;;;;14.07;8.40;;;4.60;99.90;;;;;;5073089;28;20184;-61
2021/12/04 11:38:36;;;;;;;11.63;7.13;;;4.60;99.90;;;;;;5077504;28;20219;-61
2021/12/04 11:44:00;;;;;;;11.23;6.07;;;4.60;99.90;;;;;;5071313;28;20509;-61
2021/12/04 11:46:45;;;;;;;7.60;5.67;;;4.70;99.90;;;;;;5075898;28;20271;-61
2021/12/04 11:49:17;;;;;;;12.37;6.83;;;4.70;99.90;;;;;;5072049;28;20305;-61
2021/12/04 11:51:56;;;;;;;15.10;7.90;;;4.70;99.90;;;;;;5072297;28;20205;-61
2021/12/04 11:54:24;;;;;;;10.43;6.20;;;4.70;99.90;;;;;;5071948;28;20680;-61
2021/12/04 11:57:04;;;;;;;5.73;4.60;;;4.70;99.90;;;;;;5079846;28;20516;-61
2021/12/04 11:59:33;;;;;;;5.73;3.90;;;4.70;99.90;;;;;;5076289;28;20197;-61
2021/12/04 12:02:02;;;;;;;9.33;5.50;;;4.80;99.90;;;;;;5078142;28;20188;-60
2021/12/04 12:04:37;;;;;;;8.93;5.00;;;4.90;99.90;;;;;;5073595;28;20196;-61
2021/12/04 12:07:13;;;;;;;6.23;4.10;;;4.90;99.90;;;;;;5063831;28;20273;-61
2021/12/04 12:09:42;;;;;;;6.73;3.90;;;5.00;99.90;;;;;;5070251;28;20204;-60
2021/12/04 12:12:13;;;;;;;15.37;8.17;;;5.00;99.90;;;;;;5071673;28;21007;-61
2021/12/04 12:14:47;;;;;;;12.97;7.00;;;5.10;99.90;;;;;;5071709;28;20227;-62
2021/12/04 12:17:15;;;;;;;9.20;5.50;;;5.00;99.90;;;;;;5073091;28;20533;-61
2021/12/04 12:19:52;;;;;;;13.40;7.20;;;5.00;99.90;;;;;;5070507;28;20679;-61
2021/12/04 12:22:36;;;;;;;21.13;9.00;;;5.00;99.90;;;;;;5068902;28;20243;-61
2021/12/04 12:25:19;;;;;;;16.53;7.63;;;5.00;99.90;;;;;;5070572;28;20276;-61
2021/12/04 12:31:45;;;;;;;21.33;10.23;;;5.00;99.90;;;;;;5068903;28;20577;-61
2021/12/04 12:33:39;;;;;;;16.43;8.50;;;5.00;99.90;;;;;;5078438;28;20265;-60
2021/12/04 12:36:09;;;;;;;13.23;7.70;;;4.90;99.90;;;;;;5081567;28;20205;-61
2021/12/04 12:38:48;;;;;;;14.47;7.77;;;4.90;99.90;;;;;;5078220;28;20200;-60
2021/12/04 12:41:28;;;;;;;12.13;6.83;;;4.90;99.90;;;;;;5070526;28;20192;-60
2021/12/04 12:44:04;;;;;;;13.17;7.50;;;4.80;99.90;;;;;;5060906;28;20185;-60
2021/12/04 12:46:38;;;;;;;8.87;5.43;;;4.80;99.90;;;;;;5070158;28;20196;-60
2021/12/04 12:49:16;;;;;;;8.20;5.10;;;4.90;99.90;;;;;;5066036;28;20660;-60
2021/12/04 12:51:52;;;;;;;10.97;7.30;;;4.80;99.90;;;;;;5066965;28;20730;-61
2021/12/04 12:54:25;;;;;;;15.10;10.33;;;4.90;99.90;;;;;;5068794;28;20209;-60
2021/12/04 12:56:59;;;;;;;15.03;9.47;;;4.90;99.90;;;;;;5067796;28;20276;-61
2021/12/04 12:59:37;;;;;;;10.60;6.70;;;4.90;99.90;;;;;;5071012;28;20223;-60
2021/12/04 13:13:26;;;;;;;7.57;5.10;;;4.80;99.90;;;;;;5072203;28;20196;-61
2021/12/04 13:16:00;;;;;;;6.20;4.13;;;4.80;99.90;;;;;;5072715;28;20185;-61
2021/12/04 13:18:29;;;;;;;4.60;3.97;;;4.90;99.90;;;;;;5073053;28;20235;-61
2021/12/04 13:21:03;;;;;;;9.60;5.43;;;4.80;99.90;;;;;;5069329;28;20209;-59
2021/12/04 13:23:32;;;;;;;10.07;6.00;;;4.90;99.90;;;;;;5069767;28;20276;-60
2021/12/04 13:26:02;;;;;;;16.73;8.70;;;4.90;99.90;;;;;;5083893;28;20196;-61
2021/12/04 13:28:32;;;;;;;15.73;8.00;;;4.80;99.90;;;;;;5081159;28;20207;-60
2021/12/04 13:31:00;;;;;;;13.60;7.10;;;4.80;99.90;;;;;;5085500;28;20247;-61
2021/12/04 13:33:33;;;;;;;18.43;8.73;;;4.80;99.90;;;;;;5075616;28;20189;-61
2021/12/04 13:36:00;;;;;;;15.73;8.20;;;4.70;99.90;;;;;;5078805;28;20364;-62
2021/12/04 13:38:28;;;;;;;11.80;6.80;;;4.70;99.90;;;;;;5071910;28;20220;-61
2021/12/04 13:40:58;;;;;;;8.77;5.53;;;4.70;99.90;;;;;;5071912;28;20616;-61
2021/12/04 13:43:26;;;;;;;8.60;4.80;;;4.70;99.90;;;;;;5083581;28;20549;-61
2021/12/04 13:45:58;;;;;;;8.47;5.13;;;4.60;99.90;;;;;;5089085;28;20192;-62
2021/12/04 13:48:26;;;;;;;9.10;5.40;;;4.70;99.90;;;;;;5078407;28;20246;-62
2021/12/04 13:50:55;;;;;;;6.93;4.40;;;4.70;99.90;;;;;;5068562;28;20340;-61
2021/12/04 13:53:26;;;;;;;6.67;4.60;;;4.70;99.90;;;;;;5082400;28;20250;-61
2021/12/04 13:55:59;;;;;;;9.30;4.77;;;4.70;99.90;;;;;;5086668;28;20185;-61
2021/12/04 13:58:27;;;;;;;6.87;4.10;;;4.70;99.90;;;;;;5085507;28;20216;-61
2021/12/04 14:00:54;;;;;;;8.33;4.80;;;4.70;99.90;;;;;;5079542;28;20232;-61
2021/12/04 14:03:23;;;;;;;12.20;5.90;;;4.80;99.90;;;;;;5082390;28;20245;-60
2021/12/04 14:05:51;;;;;;;9.70;5.23;;;4.80;99.90;;;;;;5074707;28;20251;-60
2021/12/04 14:08:19;;;;;;;11.97;6.00;;;4.70;99.90;;;;;;5070791;28;20228;-61
2021/12/04 14:10:48;;;;;;;10.33;6.07;;;4.80;99.90;;;;;;5071213;28;20477;-60
2021/12/04 14:13:20;;;;;;;10.87;6.43;;;4.80;99.90;;;;;;5070106;28;20722;-60
2021/12/04 14:15:50;;;;;;;13.30;6.50;;;4.80;99.90;;;;;;5070988;28;20189;-60
2021/12/04 14:18:19;;;;;;;12.47;6.47;;;4.80;99.90;;;;;;5071088;28;20280;-60
2021/12/04 14:20:49;;;;;;;10.53;6.50;;;4.80;99.90;;;;;;5068021;28;20189;-60
2021/12/04 14:23:17;;;;;;;14.57;7.00;;;4.80;99.90;;;;;;5070324;28;20197;-63
2021/12/04 14:25:45;;;;;;;11.20;6.60;;;4.70;99.90;;;;;;5070706;28;20205;-61
2021/12/04 14:28:14;;;;;;;11.30;5.93;;;4.70;99.90;;;;;;5070423;28;20201;-61
2021/12/04 14:30:45;;;;;;;10.00;5.70;;;4.60;99.90;;;;;;5070279;28;20212;-61
2021/12/04 14:33:15;;;;;;;7.53;5.13;;;4.70;99.90;;;;;;5076018;28;20193;-61
2021/12/04 14:35:45;;;;;;;6.07;3.77;;;4.60;99.90;;;;;;5069146;28;20205;-61
2021/12/04 14:38:15;;;;;;;4.83;3.40;;;4.50;99.90;;;;;;5070125;28;20204;-61
2021/12/04 14:40:45;;;;;;;12.37;6.73;;;4.60;99.90;;;;;;5071710;28;20200;-61
2021/12/04 14:43:15;;;;;;;15.20;7.63;;;4.60;99.90;;;;;;5072122;28;20189;-61
2021/12/04 14:45:47;;;;;;;10.67;6.20;;;4.60;99.90;;;;;;5073515;28;20193;-61
2021/12/04 14:48:18;;;;;;;17.37;8.93;;;4.60;99.90;;;;;;5078118;28;20233;-60
2021/12/04 14:50:49;;;;;;;15.70;8.77;;;4.60;99.90;;;;;;5070214;28;20208;-61
2021/12/04 14:53:18;;;;;;;19.00;9.80;;;4.60;99.90;;;;;;5074685;28;20216;-61
2021/12/04 14:55:48;;;;;;;15.53;8.00;;;4.50;99.90;;;;;;5072786;28;20201;-61
2021/12/04 14:58:18;;;;;;;17.67;8.87;;;4.50;99.90;;;;;;5078355;28;20644;-61
2021/12/04 15:00:52;;;;;;;18.97;9.43;;;4.40;99.90;;;;;;5087194;28;20566;-61
2021/12/04 15:03:29;;;;;;;19.37;9.63;;;4.40;99.90;;;;;;5086623;28;20230;-61
2021/12/04 15:06:00;;;;;;;12.33;7.63;;;4.40;99.90;;;;;;5077861;28;20229;-61
2021/12/04 15:08:30;;;;;;;10.70;6.60;;;4.40;99.90;;;;;;5067235;28;20647;-61
2021/12/04 15:10:59;;;;;;;16.70;9.10;;;4.40;99.90;;;;;;5063614;28;20212;-62
2021/12/04 15:13:30;;;;;;;20.70;10.67;;;4.40;99.90;;;;;;5073022;28;20203;-61
2021/12/04 15:16:03;;;;;;;12.77;7.37;;;4.40;99.90;;;;;;5066962;28;20712;-60
2021/12/04 15:18:35;;;;;;;15.30;8.07;;;4.30;99.90;;;;;;5072913;28;20316;-61
2021/12/04 15:21:05;;;;;;;10.87;6.47;;;4.40;99.90;;;;;;5072430;28;20718;-61
2021/12/04 15:23:35;;;;;;;17.43;9.00;;;4.40;99.90;;;;;;5071297;28;20679;-62
2021/12/04 15:26:09;;;;;;;13.60;6.40;;;4.40;99.90;;;;;;5071431;28;20664;-60